<?xml version="1.0" encoding="UTF-8" standalone="no" ?>
<gpx xmlns="http://www.topografix.com/GPX/1/1" xmlns:xsi="http://www.w3.org/2001/XMLSchema-instance" xsi:schemaLocation="http://www.topografix.com/GPX/1/1 http://www.topografix.com/GPX/1/1/gpx.xsd" version="1.1" creator="VisuGPX - https://www.visugpx.com">
  <metadata>
    <name>randonnée gorge du verdon</name>
  </metadata>
  <wpt lat="45.59193" lon="0.70117">
    <ele>277.8</ele>
  </wpt>
  <wpt lat="45.65739" lon="0.55618">
    <ele>143.3</ele>
  </wpt>
  <wpt lat="45.63709" lon="0.85693">
    <ele>372.8</ele>
  </wpt>
  <wpt lat="45.73184" lon="0.86843">
    <ele>357.9</ele>
  </wpt>
  <wpt lat="45.79874" lon="1.03757">
    <ele>396.8</ele>
  </wpt>
  <wpt lat="45.7679" lon="0.77824">
    <ele>289.8</ele>
    <type><![CDATA[hotel]]></type>
  </wpt>
  <wpt lat="43.84808" lon="6.51102">
    <ele>732.8</ele>
  </wpt>
  <wpt lat="43.77962" lon="6.33969">
    <ele>936.7</ele>
  </wpt>
  <trk>
    <name><![CDATA[27oct 2020]]></name>
    <trkseg>
      <trkpt lat="43.76979" lon="5.94478">
        <ele>363.208</ele>
        <time>2017-03-25T18:44:02Z</time>
      </trkpt>
      <trkpt lat="43.76967" lon="5.94504">
        <ele>364.023</ele>
        <time>2017-03-25T18:44:22Z</time>
      </trkpt>
      <trkpt lat="43.7693" lon="5.94615">
        <ele>367.415</ele>
        <time>2017-03-25T18:44:42Z</time>
      </trkpt>
      <trkpt lat="43.76934" lon="5.9464">
        <ele>367.357</ele>
        <time>2017-03-25T18:45:02Z</time>
      </trkpt>
      <trkpt lat="43.7692" lon="5.94686">
        <ele>364.62</ele>
        <time>2017-03-25T18:45:22Z</time>
      </trkpt>
      <trkpt lat="43.76945" lon="5.94748">
        <ele>366.116</ele>
        <time>2017-03-25T18:45:42Z</time>
      </trkpt>
      <trkpt lat="43.76908" lon="5.94787">
        <ele>361.798</ele>
        <time>2017-03-25T18:46:02Z</time>
      </trkpt>
      <trkpt lat="43.76885" lon="5.94767">
        <ele>361.34</ele>
        <time>2017-03-25T18:46:22Z</time>
      </trkpt>
      <trkpt lat="43.76874" lon="5.9472">
        <ele>361.036</ele>
        <time>2017-03-25T18:46:42Z</time>
      </trkpt>
      <trkpt lat="43.76842" lon="5.9468">
        <ele>363.046</ele>
        <time>2017-03-25T18:47:02Z</time>
      </trkpt>
      <trkpt lat="43.76834" lon="5.94593">
        <ele>359.488</ele>
        <time>2017-03-25T18:47:22Z</time>
      </trkpt>
      <trkpt lat="43.7682" lon="5.94537">
        <ele>358.716</ele>
        <time>2017-03-25T18:47:42Z</time>
      </trkpt>
      <trkpt lat="43.76828" lon="5.94511">
        <ele>358.208</ele>
        <time>2017-03-25T18:48:02Z</time>
      </trkpt>
      <trkpt lat="43.76797" lon="5.94432">
        <ele>355.918</ele>
        <time>2017-03-25T18:48:22Z</time>
      </trkpt>
      <trkpt lat="43.76778" lon="5.94406">
        <ele>356.06</ele>
        <time>2017-03-25T18:48:42Z</time>
      </trkpt>
      <trkpt lat="43.76756" lon="5.94345">
        <ele>355.532</ele>
        <time>2017-03-25T18:49:02Z</time>
      </trkpt>
      <trkpt lat="43.76733" lon="5.94255">
        <ele>351.995</ele>
        <time>2017-03-25T18:49:22Z</time>
      </trkpt>
      <trkpt lat="43.76699" lon="5.94187">
        <ele>349.781</ele>
        <time>2017-03-25T18:49:42Z</time>
      </trkpt>
      <trkpt lat="43.76706" lon="5.94147">
        <ele>348.623</ele>
        <time>2017-03-25T18:50:02Z</time>
      </trkpt>
      <trkpt lat="43.76692" lon="5.9414">
        <ele>348.215</ele>
        <time>2017-03-25T18:50:22Z</time>
      </trkpt>
      <trkpt lat="43.76692" lon="5.94103">
        <ele>347.171</ele>
        <time>2017-03-25T18:50:42Z</time>
      </trkpt>
      <trkpt lat="43.76667" lon="5.94052">
        <ele>346.931</ele>
        <time>2017-03-25T18:51:02Z</time>
      </trkpt>
      <trkpt lat="43.76643" lon="5.94055">
        <ele>349.561</ele>
        <time>2017-03-25T18:51:22Z</time>
      </trkpt>
      <trkpt lat="43.76625" lon="5.94098">
        <ele>351.807</ele>
        <time>2017-03-25T18:51:42Z</time>
      </trkpt>
      <trkpt lat="43.76582" lon="5.941">
        <ele>353.708</ele>
        <time>2017-03-25T18:52:02Z</time>
      </trkpt>
      <trkpt lat="43.76578" lon="5.94135">
        <ele>355.347</ele>
        <time>2017-03-25T18:52:22Z</time>
      </trkpt>
      <trkpt lat="43.76544" lon="5.94147">
        <ele>358.669</ele>
        <time>2017-03-25T18:52:42Z</time>
      </trkpt>
      <trkpt lat="43.76516" lon="5.94139">
        <ele>362.131</ele>
        <time>2017-03-25T18:53:02Z</time>
      </trkpt>
      <trkpt lat="43.76504" lon="5.94118">
        <ele>362.234</ele>
        <time>2017-03-25T18:53:22Z</time>
      </trkpt>
      <trkpt lat="43.76446" lon="5.94124">
        <ele>377.42</ele>
        <time>2017-03-25T18:53:42Z</time>
      </trkpt>
      <trkpt lat="43.76427" lon="5.94053">
        <ele>376.552</ele>
        <time>2017-03-25T18:54:02Z</time>
      </trkpt>
      <trkpt lat="43.76391" lon="5.93982">
        <ele>382.394</ele>
        <time>2017-03-25T18:54:22Z</time>
      </trkpt>
      <trkpt lat="43.7636" lon="5.93965">
        <ele>392.29</ele>
        <time>2017-03-25T18:54:42Z</time>
      </trkpt>
      <trkpt lat="43.76318" lon="5.93844">
        <ele>378.096</ele>
        <time>2017-03-25T18:55:02Z</time>
      </trkpt>
      <trkpt lat="43.76264" lon="5.93818">
        <ele>379.031</ele>
        <time>2017-03-25T18:55:22Z</time>
      </trkpt>
      <trkpt lat="43.76222" lon="5.93825">
        <ele>389.624</ele>
        <time>2017-03-25T18:55:42Z</time>
      </trkpt>
      <trkpt lat="43.76222" lon="5.93803">
        <ele>385.708</ele>
        <time>2017-03-25T18:56:02Z</time>
      </trkpt>
      <trkpt lat="43.7626" lon="5.93752">
        <ele>374.533</ele>
        <time>2017-03-25T18:56:22Z</time>
      </trkpt>
      <trkpt lat="43.76236" lon="5.93706">
        <ele>382.755</ele>
        <time>2017-03-25T18:56:42Z</time>
      </trkpt>
      <trkpt lat="43.76229" lon="5.93652">
        <ele>386.217</ele>
        <time>2017-03-25T18:57:02Z</time>
      </trkpt>
      <trkpt lat="43.76234" lon="5.93624">
        <ele>385.42</ele>
        <time>2017-03-25T18:57:22Z</time>
      </trkpt>
      <trkpt lat="43.76213" lon="5.93582">
        <ele>392.826</ele>
        <time>2017-03-25T18:57:42Z</time>
      </trkpt>
      <trkpt lat="43.76232" lon="5.93538">
        <ele>382.788</ele>
        <time>2017-03-25T18:58:02Z</time>
      </trkpt>
      <trkpt lat="43.76225" lon="5.93523">
        <ele>382.66</ele>
        <time>2017-03-25T18:58:22Z</time>
      </trkpt>
      <trkpt lat="43.7619" lon="5.93506">
        <ele>395.156</ele>
        <time>2017-03-25T18:58:42Z</time>
      </trkpt>
      <trkpt lat="43.76188" lon="5.93386">
        <ele>382.129</ele>
        <time>2017-03-25T18:59:02Z</time>
      </trkpt>
      <trkpt lat="43.76175" lon="5.93315">
        <ele>377.1</ele>
        <time>2017-03-25T18:59:22Z</time>
      </trkpt>
      <trkpt lat="43.76167" lon="5.93241">
        <ele>366.02</ele>
        <time>2017-03-25T18:59:42Z</time>
      </trkpt>
      <trkpt lat="43.76107" lon="5.93155">
        <ele>362.908</ele>
        <time>2017-03-25T19:00:02Z</time>
      </trkpt>
      <trkpt lat="43.76043" lon="5.93129">
        <ele>365.016</ele>
        <time>2017-03-25T19:00:22Z</time>
      </trkpt>
      <trkpt lat="43.7599" lon="5.93158">
        <ele>374.268</ele>
        <time>2017-03-25T19:00:42Z</time>
      </trkpt>
      <trkpt lat="43.75972" lon="5.93188">
        <ele>383.83</ele>
        <time>2017-03-25T19:01:02Z</time>
      </trkpt>
      <trkpt lat="43.75956" lon="5.93194">
        <ele>384.113</ele>
        <time>2017-03-25T19:01:22Z</time>
      </trkpt>
      <trkpt lat="43.75941" lon="5.9313">
        <ele>368.329</ele>
        <time>2017-03-25T19:01:42Z</time>
      </trkpt>
      <trkpt lat="43.75951" lon="5.93074">
        <ele>360.021</ele>
        <time>2017-03-25T19:02:02Z</time>
      </trkpt>
      <trkpt lat="43.75935" lon="5.93031">
        <ele>364.913</ele>
        <time>2017-03-25T19:02:22Z</time>
      </trkpt>
      <trkpt lat="43.75889" lon="5.93022">
        <ele>384.939</ele>
        <time>2017-03-25T19:02:42Z</time>
      </trkpt>
      <trkpt lat="43.75889" lon="5.92977">
        <ele>396.911</ele>
        <time>2017-03-25T19:03:02Z</time>
      </trkpt>
      <trkpt lat="43.75956" lon="5.92904">
        <ele>371.521</ele>
        <time>2017-03-25T19:03:22Z</time>
      </trkpt>
      <trkpt lat="43.7594" lon="5.92712">
        <ele>332.003</ele>
        <time>2017-03-25T19:03:42Z</time>
      </trkpt>
      <trkpt lat="43.75896" lon="5.92643">
        <ele>358.708</ele>
        <time>2017-03-25T19:04:02Z</time>
      </trkpt>
      <trkpt lat="43.75863" lon="5.92641">
        <ele>397.615</ele>
        <time>2017-03-25T19:04:22Z</time>
      </trkpt>
      <trkpt lat="43.75873" lon="5.9271">
        <ele>398.247</ele>
        <time>2017-03-25T19:04:42Z</time>
      </trkpt>
      <trkpt lat="43.75842" lon="5.92813">
        <ele>412.329</ele>
        <time>2017-03-25T19:05:02Z</time>
      </trkpt>
      <trkpt lat="43.75839" lon="5.92886">
        <ele>410.662</ele>
        <time>2017-03-25T19:05:22Z</time>
      </trkpt>
      <trkpt lat="43.75825" lon="5.92927">
        <ele>412.148</ele>
        <time>2017-03-25T19:05:42Z</time>
      </trkpt>
      <trkpt lat="43.75743" lon="5.92987">
        <ele>420.07</ele>
        <time>2017-03-25T19:06:02Z</time>
      </trkpt>
      <trkpt lat="43.75732" lon="5.93035">
        <ele>416.912</ele>
        <time>2017-03-25T19:06:22Z</time>
      </trkpt>
      <trkpt lat="43.75666" lon="5.93031">
        <ele>424.418</ele>
        <time>2017-03-25T19:06:42Z</time>
      </trkpt>
      <trkpt lat="43.75592" lon="5.92977">
        <ele>431.011</ele>
        <time>2017-03-25T19:07:02Z</time>
      </trkpt>
      <trkpt lat="43.75566" lon="5.92994">
        <ele>433.321</ele>
        <time>2017-03-25T19:07:22Z</time>
      </trkpt>
      <trkpt lat="43.75529" lon="5.93058">
        <ele>442.203</ele>
        <time>2017-03-25T19:07:42Z</time>
      </trkpt>
      <trkpt lat="43.7551" lon="5.93112">
        <ele>442.508</ele>
        <time>2017-03-25T19:08:02Z</time>
      </trkpt>
      <trkpt lat="43.75429" lon="5.93186">
        <ele>434.325</ele>
        <time>2017-03-25T19:08:22Z</time>
      </trkpt>
      <trkpt lat="43.7545" lon="5.93201">
        <ele>439.987</ele>
        <time>2017-03-25T19:08:42Z</time>
      </trkpt>
      <trkpt lat="43.75479" lon="5.93231">
        <ele>446.139</ele>
        <time>2017-03-25T19:09:02Z</time>
      </trkpt>
      <trkpt lat="43.75593" lon="5.93263">
        <ele>463.412</ele>
        <time>2017-03-25T19:09:22Z</time>
      </trkpt>
      <trkpt lat="43.75619" lon="5.93418">
        <ele>473.468</ele>
        <time>2017-03-25T19:09:42Z</time>
      </trkpt>
      <trkpt lat="43.75645" lon="5.93498">
        <ele>478.73</ele>
        <time>2017-03-25T19:10:02Z</time>
      </trkpt>
      <trkpt lat="43.75701" lon="5.9359">
        <ele>494.692</ele>
        <time>2017-03-25T19:10:22Z</time>
      </trkpt>
      <trkpt lat="43.75762" lon="5.9361">
        <ele>475.848</ele>
        <time>2017-03-25T19:10:42Z</time>
      </trkpt>
      <trkpt lat="43.75777" lon="5.93698">
        <ele>481.949</ele>
        <time>2017-03-25T19:11:02Z</time>
      </trkpt>
      <trkpt lat="43.75767" lon="5.93816">
        <ele>500.002</ele>
        <time>2017-03-25T19:11:22Z</time>
      </trkpt>
      <trkpt lat="43.75793" lon="5.93906">
        <ele>494.622</ele>
        <time>2017-03-25T19:11:42Z</time>
      </trkpt>
      <trkpt lat="43.75832" lon="5.93997">
        <ele>482.308</ele>
        <time>2017-03-25T19:12:02Z</time>
      </trkpt>
      <trkpt lat="43.75854" lon="5.94119">
        <ele>475.748</ele>
        <time>2017-03-25T19:12:22Z</time>
      </trkpt>
      <trkpt lat="43.75887" lon="5.9419">
        <ele>468.49</ele>
        <time>2017-03-25T19:12:42Z</time>
      </trkpt>
      <trkpt lat="43.75937" lon="5.94261">
        <ele>459.522</ele>
        <time>2017-03-25T19:13:02Z</time>
      </trkpt>
      <trkpt lat="43.75923" lon="5.94374">
        <ele>462.845</ele>
        <time>2017-03-25T19:13:22Z</time>
      </trkpt>
      <trkpt lat="43.75908" lon="5.94421">
        <ele>462.661</ele>
        <time>2017-03-25T19:13:42Z</time>
      </trkpt>
      <trkpt lat="43.7584" lon="5.9447">
        <ele>459.933</ele>
        <time>2017-03-25T19:14:02Z</time>
      </trkpt>
      <trkpt lat="43.75784" lon="5.94472">
        <ele>442.265</ele>
        <time>2017-03-25T19:14:22Z</time>
      </trkpt>
      <trkpt lat="43.75762" lon="5.94488">
        <ele>432.411</ele>
        <time>2017-03-25T19:14:42Z</time>
      </trkpt>
      <trkpt lat="43.75751" lon="5.94466">
        <ele>434.492</ele>
        <time>2017-03-25T19:15:02Z</time>
      </trkpt>
      <trkpt lat="43.75771" lon="5.94388">
        <ele>452.973</ele>
        <time>2017-03-25T19:15:22Z</time>
      </trkpt>
      <trkpt lat="43.7575" lon="5.94374">
        <ele>451.12</ele>
        <time>2017-03-25T19:15:42Z</time>
      </trkpt>
      <trkpt lat="43.75728" lon="5.94382">
        <ele>443.208</ele>
        <time>2017-03-25T19:16:02Z</time>
      </trkpt>
      <trkpt lat="43.75721" lon="5.94439">
        <ele>427.363</ele>
        <time>2017-03-25T19:16:22Z</time>
      </trkpt>
      <trkpt lat="43.75704" lon="5.94455">
        <ele>416.775</ele>
        <time>2017-03-25T19:16:42Z</time>
      </trkpt>
      <trkpt lat="43.75695" lon="5.94486">
        <ele>406.817</ele>
        <time>2017-03-25T19:17:02Z</time>
      </trkpt>
      <trkpt lat="43.75713" lon="5.94577">
        <ele>398.98</ele>
        <time>2017-03-25T19:17:22Z</time>
      </trkpt>
      <trkpt lat="43.75743" lon="5.94592">
        <ele>408.526</ele>
        <time>2017-03-25T19:17:42Z</time>
      </trkpt>
      <trkpt lat="43.75769" lon="5.94622">
        <ele>416.028</ele>
        <time>2017-03-25T19:18:02Z</time>
      </trkpt>
      <trkpt lat="43.75751" lon="5.94668">
        <ele>402.02</ele>
        <time>2017-03-25T19:18:22Z</time>
      </trkpt>
      <trkpt lat="43.7575" lon="5.94697">
        <ele>397.746</ele>
        <time>2017-03-25T19:18:42Z</time>
      </trkpt>
      <trkpt lat="43.75762" lon="5.94719">
        <ele>397.651</ele>
        <time>2017-03-25T19:19:02Z</time>
      </trkpt>
      <trkpt lat="43.75819" lon="5.94893">
        <ele>398.401</ele>
        <time>2017-03-25T19:19:22Z</time>
      </trkpt>
      <trkpt lat="43.75845" lon="5.94911">
        <ele>404.711</ele>
        <time>2017-03-25T19:19:42Z</time>
      </trkpt>
      <trkpt lat="43.75856" lon="5.94975">
        <ele>405.508</ele>
        <time>2017-03-25T19:20:02Z</time>
      </trkpt>
      <trkpt lat="43.7585" lon="5.95055">
        <ele>400.079</ele>
        <time>2017-03-25T19:20:22Z</time>
      </trkpt>
      <trkpt lat="43.75874" lon="5.95123">
        <ele>400.861</ele>
        <time>2017-03-25T19:20:42Z</time>
      </trkpt>
      <trkpt lat="43.75904" lon="5.95169">
        <ele>404.733</ele>
        <time>2017-03-25T19:21:02Z</time>
      </trkpt>
      <trkpt lat="43.75895" lon="5.95263">
        <ele>400.076</ele>
        <time>2017-03-25T19:21:22Z</time>
      </trkpt>
      <trkpt lat="43.75849" lon="5.95165">
        <ele>400.072</ele>
        <time>2017-03-25T19:21:42Z</time>
      </trkpt>
      <trkpt lat="43.75813" lon="5.95137">
        <ele>399.254</ele>
        <time>2017-03-25T19:22:02Z</time>
      </trkpt>
      <trkpt lat="43.75791" lon="5.95101">
        <ele>397.846</ele>
        <time>2017-03-25T19:22:22Z</time>
      </trkpt>
      <trkpt lat="43.75762" lon="5.95073">
        <ele>396.822</ele>
        <time>2017-03-25T19:22:42Z</time>
      </trkpt>
      <trkpt lat="43.75681" lon="5.95063">
        <ele>416.371</ele>
        <time>2017-03-25T19:23:02Z</time>
      </trkpt>
      <trkpt lat="43.75694" lon="5.95097">
        <ele>419.541</ele>
        <time>2017-03-25T19:23:22Z</time>
      </trkpt>
      <trkpt lat="43.75662" lon="5.95193">
        <ele>436.115</ele>
        <time>2017-03-25T19:23:42Z</time>
      </trkpt>
      <trkpt lat="43.75593" lon="5.95239">
        <ele>449.908</ele>
        <time>2017-03-25T19:24:02Z</time>
      </trkpt>
      <trkpt lat="43.75532" lon="5.95227">
        <ele>460.111</ele>
        <time>2017-03-25T19:24:22Z</time>
      </trkpt>
      <trkpt lat="43.75495" lon="5.95245">
        <ele>471.943</ele>
        <time>2017-03-25T19:24:42Z</time>
      </trkpt>
      <trkpt lat="43.7546" lon="5.95321">
        <ele>483.755</ele>
        <time>2017-03-25T19:25:02Z</time>
      </trkpt>
      <trkpt lat="43.75404" lon="5.95355">
        <ele>476.858</ele>
        <time>2017-03-25T19:25:22Z</time>
      </trkpt>
      <trkpt lat="43.75383" lon="5.95399">
        <ele>474.184</ele>
        <time>2017-03-25T19:25:42Z</time>
      </trkpt>
      <trkpt lat="43.75362" lon="5.95383">
        <ele>466.916</ele>
        <time>2017-03-25T19:26:02Z</time>
      </trkpt>
      <trkpt lat="43.75366" lon="5.95349">
        <ele>466.718</ele>
        <time>2017-03-25T19:26:22Z</time>
      </trkpt>
      <trkpt lat="43.7542" lon="5.95309">
        <ele>477.644</ele>
        <time>2017-03-25T19:26:42Z</time>
      </trkpt>
      <trkpt lat="43.75433" lon="5.95251">
        <ele>474.276</ele>
        <time>2017-03-25T19:27:02Z</time>
      </trkpt>
      <trkpt lat="43.75266" lon="5.95163">
        <ele>413.89</ele>
        <time>2017-03-25T19:27:22Z</time>
      </trkpt>
      <trkpt lat="43.75236" lon="5.95111">
        <ele>396.919</ele>
        <time>2017-03-25T19:27:42Z</time>
      </trkpt>
      <trkpt lat="43.7522" lon="5.95123">
        <ele>394.008</ele>
        <time>2017-03-25T19:28:02Z</time>
      </trkpt>
      <trkpt lat="43.75292" lon="5.95245">
        <ele>429.731</ele>
        <time>2017-03-25T19:28:22Z</time>
      </trkpt>
      <trkpt lat="43.75269" lon="5.95291">
        <ele>423.723</ele>
        <time>2017-03-25T19:28:42Z</time>
      </trkpt>
      <trkpt lat="43.75262" lon="5.95423">
        <ele>427.955</ele>
        <time>2017-03-25T19:29:02Z</time>
      </trkpt>
      <trkpt lat="43.75236" lon="5.95427">
        <ele>414.958</ele>
        <time>2017-03-25T19:29:22Z</time>
      </trkpt>
      <trkpt lat="43.75207" lon="5.95525">
        <ele>408.124</ele>
        <time>2017-03-25T19:29:42Z</time>
      </trkpt>
      <trkpt lat="43.75233" lon="5.95637">
        <ele>417.326</ele>
        <time>2017-03-25T19:30:02Z</time>
      </trkpt>
      <trkpt lat="43.75217" lon="5.95708">
        <ele>409.438</ele>
        <time>2017-03-25T19:30:22Z</time>
      </trkpt>
      <trkpt lat="43.7522" lon="5.95774">
        <ele>407.074</ele>
        <time>2017-03-25T19:30:42Z</time>
      </trkpt>
      <trkpt lat="43.75247" lon="5.95836">
        <ele>418.593</ele>
        <time>2017-03-25T19:31:02Z</time>
      </trkpt>
      <trkpt lat="43.75256" lon="5.95902">
        <ele>417.265</ele>
        <time>2017-03-25T19:31:22Z</time>
      </trkpt>
      <trkpt lat="43.75294" lon="5.9594">
        <ele>422.321</ele>
        <time>2017-03-25T19:31:42Z</time>
      </trkpt>
      <trkpt lat="43.75263" lon="5.96046">
        <ele>410.208</ele>
        <time>2017-03-25T19:32:02Z</time>
      </trkpt>
      <trkpt lat="43.75268" lon="5.96094">
        <ele>410.343</ele>
        <time>2017-03-25T19:32:22Z</time>
      </trkpt>
      <trkpt lat="43.75246" lon="5.9615">
        <ele>406.735</ele>
        <time>2017-03-25T19:32:42Z</time>
      </trkpt>
      <trkpt lat="43.75245" lon="5.9619">
        <ele>407.687</ele>
        <time>2017-03-25T19:33:02Z</time>
      </trkpt>
      <trkpt lat="43.75285" lon="5.96274">
        <ele>421.58</ele>
        <time>2017-03-25T19:33:22Z</time>
      </trkpt>
      <trkpt lat="43.75315" lon="5.9639">
        <ele>425.436</ele>
        <time>2017-03-25T19:33:42Z</time>
      </trkpt>
      <trkpt lat="43.753" lon="5.9649">
        <ele>418.728</ele>
        <time>2017-03-25T19:34:02Z</time>
      </trkpt>
      <trkpt lat="43.75307" lon="5.96528">
        <ele>419.24</ele>
        <time>2017-03-25T19:34:22Z</time>
      </trkpt>
      <trkpt lat="43.75279" lon="5.96582">
        <ele>413.246</ele>
        <time>2017-03-25T19:34:42Z</time>
      </trkpt>
      <trkpt lat="43.75272" lon="5.96659">
        <ele>409.891</ele>
        <time>2017-03-25T19:35:02Z</time>
      </trkpt>
      <trkpt lat="43.75307" lon="5.96759">
        <ele>411.281</ele>
        <time>2017-03-25T19:35:22Z</time>
      </trkpt>
      <trkpt lat="43.75268" lon="5.96849">
        <ele>409.919</ele>
        <time>2017-03-25T19:35:42Z</time>
      </trkpt>
      <trkpt lat="43.75253" lon="5.96927">
        <ele>411.108</ele>
        <time>2017-03-25T19:36:02Z</time>
      </trkpt>
      <trkpt lat="43.75292" lon="5.96961">
        <ele>416.013</ele>
        <time>2017-03-25T19:36:22Z</time>
      </trkpt>
      <trkpt lat="43.75242" lon="5.96963">
        <ele>411.885</ele>
        <time>2017-03-25T19:36:42Z</time>
      </trkpt>
      <trkpt lat="43.75204" lon="5.96987">
        <ele>409.757</ele>
        <time>2017-03-25T19:37:02Z</time>
      </trkpt>
      <trkpt lat="43.75139" lon="5.96963">
        <ele>400.79</ele>
        <time>2017-03-25T19:37:22Z</time>
      </trkpt>
      <trkpt lat="43.7512" lon="5.96919">
        <ele>397.736</ele>
        <time>2017-03-25T19:37:42Z</time>
      </trkpt>
      <trkpt lat="43.75084" lon="5.96941">
        <ele>397.048</ele>
        <time>2017-03-25T19:38:02Z</time>
      </trkpt>
      <trkpt lat="43.7498" lon="5.96949">
        <ele>401.98</ele>
        <time>2017-03-25T19:38:22Z</time>
      </trkpt>
      <trkpt lat="43.74971" lon="5.96999">
        <ele>403.266</ele>
        <time>2017-03-25T19:38:42Z</time>
      </trkpt>
      <trkpt lat="43.7498" lon="5.97047">
        <ele>402.995</ele>
        <time>2017-03-25T19:39:02Z</time>
      </trkpt>
      <trkpt lat="43.74963" lon="5.97207">
        <ele>408.149</ele>
        <time>2017-03-25T19:39:22Z</time>
      </trkpt>
      <trkpt lat="43.74967" lon="5.97349">
        <ele>409.323</ele>
        <time>2017-03-25T19:39:42Z</time>
      </trkpt>
      <trkpt lat="43.74977" lon="5.97413">
        <ele>408.408</ele>
        <time>2017-03-25T19:40:02Z</time>
      </trkpt>
      <trkpt lat="43.74974" lon="5.97577">
        <ele>410.663</ele>
        <time>2017-03-25T19:40:22Z</time>
      </trkpt>
      <trkpt lat="43.7502" lon="5.97782">
        <ele>411.015</ele>
        <time>2017-03-25T19:40:42Z</time>
      </trkpt>
      <trkpt lat="43.75003" lon="5.97788">
        <ele>411.317</ele>
        <time>2017-03-25T19:41:02Z</time>
      </trkpt>
      <trkpt lat="43.74997" lon="5.97834">
        <ele>412.22</ele>
        <time>2017-03-25T19:41:22Z</time>
      </trkpt>
      <trkpt lat="43.74857" lon="5.97812">
        <ele>437.736</ele>
        <time>2017-03-25T19:41:42Z</time>
      </trkpt>
      <trkpt lat="43.74802" lon="5.978">
        <ele>441.188</ele>
        <time>2017-03-25T19:42:02Z</time>
      </trkpt>
      <trkpt lat="43.7476" lon="5.9782">
        <ele>440.02</ele>
        <time>2017-03-25T19:42:22Z</time>
      </trkpt>
      <trkpt lat="43.74696" lon="5.97788">
        <ele>455.096</ele>
        <time>2017-03-25T19:42:42Z</time>
      </trkpt>
      <trkpt lat="43.74633" lon="5.97774">
        <ele>461.939</ele>
        <time>2017-03-25T19:43:02Z</time>
      </trkpt>
      <trkpt lat="43.746" lon="5.97794">
        <ele>466.801</ele>
        <time>2017-03-25T19:43:22Z</time>
      </trkpt>
      <trkpt lat="43.74578" lon="5.9779">
        <ele>470.121</ele>
        <time>2017-03-25T19:43:42Z</time>
      </trkpt>
      <trkpt lat="43.74569" lon="5.97749">
        <ele>474.108</ele>
        <time>2017-03-25T19:44:02Z</time>
      </trkpt>
      <trkpt lat="43.74549" lon="5.9779">
        <ele>475.337</ele>
        <time>2017-03-25T19:44:22Z</time>
      </trkpt>
      <trkpt lat="43.74546" lon="5.97746">
        <ele>477.579</ele>
        <time>2017-03-25T19:44:42Z</time>
      </trkpt>
      <trkpt lat="43.74512" lon="5.97679">
        <ele>480.011</ele>
        <time>2017-03-25T19:45:02Z</time>
      </trkpt>
      <trkpt lat="43.74479" lon="5.97664">
        <ele>480.064</ele>
        <time>2017-03-25T19:45:22Z</time>
      </trkpt>
      <trkpt lat="43.74377" lon="5.97638">
        <ele>467.47</ele>
        <time>2017-03-25T19:45:42Z</time>
      </trkpt>
      <trkpt lat="43.74276" lon="5.97582">
        <ele>456.782</ele>
        <time>2017-03-25T19:46:02Z</time>
      </trkpt>
      <trkpt lat="43.74252" lon="5.97493">
        <ele>448.564</ele>
        <time>2017-03-25T19:46:22Z</time>
      </trkpt>
      <trkpt lat="43.7425" lon="5.97423">
        <ele>438.69</ele>
        <time>2017-03-25T19:46:42Z</time>
      </trkpt>
      <trkpt lat="43.74225" lon="5.97405">
        <ele>430.722</ele>
        <time>2017-03-25T19:47:02Z</time>
      </trkpt>
      <trkpt lat="43.74267" lon="5.97389">
        <ele>437.762</ele>
        <time>2017-03-25T19:47:22Z</time>
      </trkpt>
      <trkpt lat="43.74268" lon="5.97367">
        <ele>435.108</ele>
        <time>2017-03-25T19:47:42Z</time>
      </trkpt>
      <trkpt lat="43.74199" lon="5.97375">
        <ele>420.208</ele>
        <time>2017-03-25T19:48:02Z</time>
      </trkpt>
      <trkpt lat="43.74142" lon="5.97373">
        <ele>413.146</ele>
        <time>2017-03-25T19:48:22Z</time>
      </trkpt>
      <trkpt lat="43.7409" lon="5.97393">
        <ele>404.518</ele>
        <time>2017-03-25T19:48:42Z</time>
      </trkpt>
      <trkpt lat="43.73976" lon="5.97375">
        <ele>392.03</ele>
        <time>2017-03-25T19:49:02Z</time>
      </trkpt>
      <trkpt lat="43.73941" lon="5.97339">
        <ele>392.413</ele>
        <time>2017-03-25T19:49:22Z</time>
      </trkpt>
      <trkpt lat="43.73927" lon="5.97301">
        <ele>393.229</ele>
        <time>2017-03-25T19:49:42Z</time>
      </trkpt>
      <trkpt lat="43.73898" lon="5.97289">
        <ele>387.711</ele>
        <time>2017-03-25T19:50:02Z</time>
      </trkpt>
      <trkpt lat="43.73897" lon="5.97347">
        <ele>381.373</ele>
        <time>2017-03-25T19:50:22Z</time>
      </trkpt>
      <trkpt lat="43.73871" lon="5.97389">
        <ele>377.449</ele>
        <time>2017-03-25T19:50:42Z</time>
      </trkpt>
      <trkpt lat="43.73924" lon="5.97451">
        <ele>386.073</ele>
        <time>2017-03-25T19:51:02Z</time>
      </trkpt>
      <trkpt lat="43.73972" lon="5.97433">
        <ele>390.085</ele>
        <time>2017-03-25T19:51:22Z</time>
      </trkpt>
      <trkpt lat="43.73992" lon="5.97453">
        <ele>392.913</ele>
        <time>2017-03-25T19:51:42Z</time>
      </trkpt>
      <trkpt lat="43.7398" lon="5.97535">
        <ele>392.908</ele>
        <time>2017-03-25T19:52:02Z</time>
      </trkpt>
      <trkpt lat="43.73952" lon="5.97588">
        <ele>391.341</ele>
        <time>2017-03-25T19:52:22Z</time>
      </trkpt>
      <trkpt lat="43.73901" lon="5.97612">
        <ele>388.963</ele>
        <time>2017-03-25T19:52:42Z</time>
      </trkpt>
      <trkpt lat="43.73868" lon="5.9772">
        <ele>392.125</ele>
        <time>2017-03-25T19:53:02Z</time>
      </trkpt>
      <trkpt lat="43.73847" lon="5.97678">
        <ele>390.468</ele>
        <time>2017-03-25T19:53:22Z</time>
      </trkpt>
      <trkpt lat="43.73816" lon="5.97668">
        <ele>390.084</ele>
        <time>2017-03-25T19:53:42Z</time>
      </trkpt>
      <trkpt lat="43.73804" lon="5.97698">
        <ele>391.246</ele>
        <time>2017-03-25T19:54:02Z</time>
      </trkpt>
      <trkpt lat="43.73748" lon="5.97734">
        <ele>393.868</ele>
        <time>2017-03-25T19:54:22Z</time>
      </trkpt>
      <trkpt lat="43.73729" lon="5.9773">
        <ele>393.544</ele>
        <time>2017-03-25T19:54:42Z</time>
      </trkpt>
      <trkpt lat="43.73681" lon="5.97756">
        <ele>410.519</ele>
        <time>2017-03-25T19:55:02Z</time>
      </trkpt>
      <trkpt lat="43.73658" lon="5.97748">
        <ele>419.109</ele>
        <time>2017-03-25T19:55:22Z</time>
      </trkpt>
      <trkpt lat="43.7358" lon="5.97806">
        <ele>440.119</ele>
        <time>2017-03-25T19:55:42Z</time>
      </trkpt>
      <trkpt lat="43.73573" lon="5.97836">
        <ele>441.408</ele>
        <time>2017-03-25T19:56:02Z</time>
      </trkpt>
      <trkpt lat="43.73529" lon="5.97866">
        <ele>446.145</ele>
        <time>2017-03-25T19:56:22Z</time>
      </trkpt>
      <trkpt lat="43.73481" lon="5.97968">
        <ele>461.767</ele>
        <time>2017-03-25T19:56:42Z</time>
      </trkpt>
      <trkpt lat="43.73434" lon="5.97978">
        <ele>471.899</ele>
        <time>2017-03-25T19:57:02Z</time>
      </trkpt>
      <trkpt lat="43.7339" lon="5.97898">
        <ele>467.172</ele>
        <time>2017-03-25T19:57:22Z</time>
      </trkpt>
      <trkpt lat="43.73351" lon="5.97888">
        <ele>471.568</ele>
        <time>2017-03-25T19:57:42Z</time>
      </trkpt>
      <trkpt lat="43.7327" lon="5.97924">
        <ele>480.63</ele>
        <time>2017-03-25T19:58:02Z</time>
      </trkpt>
      <trkpt lat="43.73234" lon="5.97926">
        <ele>483.022</ele>
        <time>2017-03-25T19:58:22Z</time>
      </trkpt>
      <trkpt lat="43.73214" lon="5.98028">
        <ele>496.648</ele>
        <time>2017-03-25T19:58:42Z</time>
      </trkpt>
      <trkpt lat="43.73131" lon="5.98084">
        <ele>506.095</ele>
        <time>2017-03-25T19:59:02Z</time>
      </trkpt>
      <trkpt lat="43.73134" lon="5.98146">
        <ele>509.449</ele>
        <time>2017-03-25T19:59:22Z</time>
      </trkpt>
      <trkpt lat="43.73085" lon="5.98132">
        <ele>515.623</ele>
        <time>2017-03-25T19:59:42Z</time>
      </trkpt>
      <trkpt lat="43.73088" lon="5.9817">
        <ele>515.808</ele>
        <time>2017-03-25T20:00:02Z</time>
      </trkpt>
      <trkpt lat="43.73105" lon="5.98232">
        <ele>516.663</ele>
        <time>2017-03-25T20:00:22Z</time>
      </trkpt>
      <trkpt lat="43.73114" lon="5.98326">
        <ele>519.895</ele>
        <time>2017-03-25T20:00:42Z</time>
      </trkpt>
      <trkpt lat="43.73153" lon="5.98524">
        <ele>522.967</ele>
        <time>2017-03-25T20:01:02Z</time>
      </trkpt>
      <trkpt lat="43.73218" lon="5.98693">
        <ele>514.22</ele>
        <time>2017-03-25T20:01:22Z</time>
      </trkpt>
      <trkpt lat="43.73237" lon="5.98871">
        <ele>504.586</ele>
        <time>2017-03-25T20:01:42Z</time>
      </trkpt>
      <trkpt lat="43.73199" lon="5.98945">
        <ele>510.648</ele>
        <time>2017-03-25T20:02:02Z</time>
      </trkpt>
      <trkpt lat="43.73154" lon="5.98995">
        <ele>516.91</ele>
        <time>2017-03-25T20:02:22Z</time>
      </trkpt>
      <trkpt lat="43.73117" lon="5.99065">
        <ele>523.756</ele>
        <time>2017-03-25T20:02:42Z</time>
      </trkpt>
      <trkpt lat="43.7311" lon="5.99137">
        <ele>527.065</ele>
        <time>2017-03-25T20:03:02Z</time>
      </trkpt>
      <trkpt lat="43.73081" lon="5.99209">
        <ele>530.068</ele>
        <time>2017-03-25T20:03:22Z</time>
      </trkpt>
      <trkpt lat="43.73062" lon="5.99285">
        <ele>530.014</ele>
        <time>2017-03-25T20:03:42Z</time>
      </trkpt>
      <trkpt lat="43.73024" lon="5.99381">
        <ele>530.008</ele>
        <time>2017-03-25T20:04:02Z</time>
      </trkpt>
      <trkpt lat="43.73016" lon="5.99439">
        <ele>530.07</ele>
        <time>2017-03-25T20:04:22Z</time>
      </trkpt>
      <trkpt lat="43.72997" lon="5.99461">
        <ele>530.062</ele>
        <time>2017-03-25T20:04:42Z</time>
      </trkpt>
      <trkpt lat="43.72917" lon="5.99726">
        <ele>530.074</ele>
        <time>2017-03-25T20:05:02Z</time>
      </trkpt>
      <trkpt lat="43.72815" lon="5.99658">
        <ele>530.097</ele>
        <time>2017-03-25T20:05:22Z</time>
      </trkpt>
      <trkpt lat="43.72784" lon="5.99684">
        <ele>530.013</ele>
        <time>2017-03-25T20:05:42Z</time>
      </trkpt>
      <trkpt lat="43.72755" lon="5.99692">
        <ele>530.075</ele>
        <time>2017-03-25T20:06:02Z</time>
      </trkpt>
      <trkpt lat="43.72723" lon="5.99742">
        <ele>530.097</ele>
        <time>2017-03-25T20:06:22Z</time>
      </trkpt>
      <trkpt lat="43.72677" lon="5.9974">
        <ele>530.063</ele>
        <time>2017-03-25T20:06:42Z</time>
      </trkpt>
      <trkpt lat="43.72665" lon="5.99774">
        <ele>530.018</ele>
        <time>2017-03-25T20:07:02Z</time>
      </trkpt>
      <trkpt lat="43.7267" lon="5.99802">
        <ele>530.098</ele>
        <time>2017-03-25T20:07:22Z</time>
      </trkpt>
      <trkpt lat="43.72647" lon="5.99844">
        <ele>530.017</ele>
        <time>2017-03-25T20:07:42Z</time>
      </trkpt>
      <trkpt lat="43.72625" lon="5.99906">
        <ele>530.808</ele>
        <time>2017-03-25T20:08:02Z</time>
      </trkpt>
      <trkpt lat="43.72597" lon="5.99964">
        <ele>531.415</ele>
        <time>2017-03-25T20:08:22Z</time>
      </trkpt>
      <trkpt lat="43.7269" lon="6.00038">
        <ele>535.997</ele>
        <time>2017-03-25T20:08:42Z</time>
      </trkpt>
      <trkpt lat="43.7268" lon="6.00086">
        <ele>536.549</ele>
        <time>2017-03-25T20:09:02Z</time>
      </trkpt>
      <trkpt lat="43.72683" lon="6.0013">
        <ele>537.432</ele>
        <time>2017-03-25T20:09:22Z</time>
      </trkpt>
      <trkpt lat="43.72703" lon="6.00148">
        <ele>538.038</ele>
        <time>2017-03-25T20:09:42Z</time>
      </trkpt>
      <trkpt lat="43.7267" lon="6.0024">
        <ele>538.75</ele>
        <time>2017-03-25T20:10:02Z</time>
      </trkpt>
      <trkpt lat="43.72595" lon="6.00382">
        <ele>539.492</ele>
        <time>2017-03-25T20:10:22Z</time>
      </trkpt>
      <trkpt lat="43.72518" lon="6.00601">
        <ele>540.018</ele>
        <time>2017-03-25T20:10:42Z</time>
      </trkpt>
      <trkpt lat="43.72398" lon="6.00779">
        <ele>540.083</ele>
        <time>2017-03-25T20:11:02Z</time>
      </trkpt>
      <trkpt lat="43.72369" lon="6.00847">
        <ele>540.025</ele>
        <time>2017-03-25T20:11:22Z</time>
      </trkpt>
      <trkpt lat="43.72252" lon="6.01037">
        <ele>540.117</ele>
        <time>2017-03-25T20:11:42Z</time>
      </trkpt>
      <trkpt lat="43.72152" lon="6.01159">
        <ele>540.008</ele>
        <time>2017-03-25T20:12:02Z</time>
      </trkpt>
      <trkpt lat="43.72055" lon="6.01253">
        <ele>538.172</ele>
        <time>2017-03-25T20:12:22Z</time>
      </trkpt>
      <trkpt lat="43.71972" lon="6.01415">
        <ele>537.034</ele>
        <time>2017-03-25T20:12:42Z</time>
      </trkpt>
      <trkpt lat="43.7177" lon="6.01738">
        <ele>543.066</ele>
        <time>2017-03-25T20:13:02Z</time>
      </trkpt>
      <trkpt lat="43.71544" lon="6.01974">
        <ele>544.129</ele>
        <time>2017-03-25T20:13:22Z</time>
      </trkpt>
      <trkpt lat="43.71482" lon="6.02074">
        <ele>544.815</ele>
        <time>2017-03-25T20:13:42Z</time>
      </trkpt>
      <trkpt lat="43.71443" lon="6.02166">
        <ele>544.977</ele>
        <time>2017-03-25T20:14:02Z</time>
      </trkpt>
      <trkpt lat="43.7124" lon="6.02316">
        <ele>543.019</ele>
        <time>2017-03-25T20:14:22Z</time>
      </trkpt>
      <trkpt lat="43.71153" lon="6.02412">
        <ele>542.015</ele>
        <time>2017-03-25T20:14:42Z</time>
      </trkpt>
      <trkpt lat="43.71101" lon="6.02487">
        <ele>541.868</ele>
        <time>2017-03-25T20:15:02Z</time>
      </trkpt>
      <trkpt lat="43.7089" lon="6.02623">
        <ele>541.042</ele>
        <time>2017-03-25T20:15:22Z</time>
      </trkpt>
      <trkpt lat="43.70822" lon="6.02659">
        <ele>540.026</ele>
        <time>2017-03-25T20:15:42Z</time>
      </trkpt>
      <trkpt lat="43.70748" lon="6.02673">
        <ele>540.008</ele>
        <time>2017-03-25T20:16:02Z</time>
      </trkpt>
      <trkpt lat="43.70737" lon="6.02699">
        <ele>540.03</ele>
        <time>2017-03-25T20:16:22Z</time>
      </trkpt>
      <trkpt lat="43.70702" lon="6.02709">
        <ele>540.082</ele>
        <time>2017-03-25T20:16:42Z</time>
      </trkpt>
      <trkpt lat="43.70663" lon="6.02761">
        <ele>538.934</ele>
        <time>2017-03-25T20:17:02Z</time>
      </trkpt>
      <trkpt lat="43.70535" lon="6.02751">
        <ele>537.077</ele>
        <time>2017-03-25T20:17:22Z</time>
      </trkpt>
      <trkpt lat="43.70498" lon="6.02789">
        <ele>536.013</ele>
        <time>2017-03-25T20:17:42Z</time>
      </trkpt>
      <trkpt lat="43.70485" lon="6.02787">
        <ele>536.015</ele>
        <time>2017-03-25T20:18:02Z</time>
      </trkpt>
      <trkpt lat="43.70438" lon="6.02849">
        <ele>535.087</ele>
        <time>2017-03-25T20:18:22Z</time>
      </trkpt>
      <trkpt lat="43.70443" lon="6.02881">
        <ele>535.053</ele>
        <time>2017-03-25T20:18:42Z</time>
      </trkpt>
      <trkpt lat="43.70425" lon="6.02921">
        <ele>531.025</ele>
        <time>2017-03-25T20:19:02Z</time>
      </trkpt>
      <trkpt lat="43.70434" lon="6.02941">
        <ele>527.026</ele>
        <time>2017-03-25T20:19:22Z</time>
      </trkpt>
      <trkpt lat="43.70423" lon="6.02971">
        <ele>518.908</ele>
        <time>2017-03-25T20:19:42Z</time>
      </trkpt>
      <trkpt lat="43.70451" lon="6.02995">
        <ele>516.208</ele>
        <time>2017-03-25T20:20:02Z</time>
      </trkpt>
      <trkpt lat="43.70431" lon="6.03007">
        <ele>509.446</ele>
        <time>2017-03-25T20:20:22Z</time>
      </trkpt>
      <trkpt lat="43.70472" lon="6.03035">
        <ele>506.068</ele>
        <time>2017-03-25T20:20:42Z</time>
      </trkpt>
      <trkpt lat="43.70479" lon="6.03067">
        <ele>496.47</ele>
        <time>2017-03-25T20:21:02Z</time>
      </trkpt>
      <trkpt lat="43.70441" lon="6.03069">
        <ele>489.253</ele>
        <time>2017-03-25T20:21:22Z</time>
      </trkpt>
      <trkpt lat="43.70378" lon="6.03099">
        <ele>472.849</ele>
        <time>2017-03-25T20:21:42Z</time>
      </trkpt>
      <trkpt lat="43.70355" lon="6.03117">
        <ele>465.861</ele>
        <time>2017-03-25T20:22:02Z</time>
      </trkpt>
      <trkpt lat="43.7033" lon="6.03115">
        <ele>462.393</ele>
        <time>2017-03-25T20:22:22Z</time>
      </trkpt>
      <trkpt lat="43.70263" lon="6.0315">
        <ele>452.849</ele>
        <time>2017-03-25T20:22:42Z</time>
      </trkpt>
      <trkpt lat="43.70217" lon="6.03165">
        <ele>443.633</ele>
        <time>2017-03-25T20:23:02Z</time>
      </trkpt>
      <trkpt lat="43.70182" lon="6.03195">
        <ele>437.823</ele>
        <time>2017-03-25T20:23:22Z</time>
      </trkpt>
      <trkpt lat="43.70156" lon="6.03251">
        <ele>428.315</ele>
        <time>2017-03-25T20:23:42Z</time>
      </trkpt>
      <trkpt lat="43.70001" lon="6.03406">
        <ele>409.108</ele>
        <time>2017-03-25T20:24:02Z</time>
      </trkpt>
      <trkpt lat="43.70121" lon="6.03508">
        <ele>399.247</ele>
        <time>2017-03-25T20:24:22Z</time>
      </trkpt>
      <trkpt lat="43.70148" lon="6.03512">
        <ele>400.899</ele>
        <time>2017-03-25T20:24:42Z</time>
      </trkpt>
      <trkpt lat="43.70182" lon="6.03556">
        <ele>400.621</ele>
        <time>2017-03-25T20:25:02Z</time>
      </trkpt>
      <trkpt lat="43.70136" lon="6.03708">
        <ele>391.354</ele>
        <time>2017-03-25T20:25:22Z</time>
      </trkpt>
      <trkpt lat="43.70158" lon="6.03792">
        <ele>388.87</ele>
        <time>2017-03-25T20:25:42Z</time>
      </trkpt>
      <trkpt lat="43.70185" lon="6.03834">
        <ele>388.322</ele>
        <time>2017-03-25T20:26:02Z</time>
      </trkpt>
      <trkpt lat="43.7019" lon="6.03856">
        <ele>387.864</ele>
        <time>2017-03-25T20:26:22Z</time>
      </trkpt>
      <trkpt lat="43.70143" lon="6.03932">
        <ele>381.3</ele>
      </trkpt>
      <trkpt lat="43.70108" lon="6.03896">
        <ele>380.5</ele>
      </trkpt>
      <trkpt lat="43.70064" lon="6.03837">
        <ele>375.6</ele>
      </trkpt>
      <trkpt lat="43.70039" lon="6.03838">
        <ele>374.1</ele>
      </trkpt>
      <trkpt lat="43.70015" lon="6.03871">
        <ele>372.9</ele>
      </trkpt>
      <trkpt lat="43.70033" lon="6.03916">
        <ele>372.7</ele>
      </trkpt>
    </trkseg>
  </trk>
</gpx>